THY224 SVMI-LTFM
Flight info
| Callsign | THY224 |
|---|---|
| Flight time | N/A |
| Altitude | 34000 |
| Route | VADOR2 UBKET UN779 TOSOS UM414 XOKEM/N0500F360 UM414 KIKER M423 RAYAS/N0502F350 M576 OBIKE/M085F350 M576 RKDIA DCT 25N055W/M085F370 28N050W 35N040W 40N030W/M085F390 45N020W 46N015W DCT SEPAL DCT LAPEX/N0495F390 DCT COQUE/N0492F400 DCT AKEMO DCT GIGOT DCT OBATO DCT RESMI/N0486F410 DCT SOMDA DCT LUVAL DCT BEGAR DCT TRA DCT GAMSA N871 MADEB N606 GIRIS DCT GOTEK DCT KUBUD DCT MONID DCT EVTON DCT IDASI DCT GINAM DCT NISVA DCT DEDIN DCT AYTEK AYTEK1A |
| Aircraft | A359/H-SDE2E3GHIJ3J4J5LM1ORWXY/LB1D1 |
Departure
| Time | 2026-05-04 03:45 |
|---|---|
| Airport | Maiquetía Simón Bolívar International Airport (SVMI) |
Arrival
| Time | N/A |
|---|---|
| Airport | İstanbul Airport (LTFM) |
| Time | Latitude | Longitude | Altitude | Speed | Heading |
|---|---|---|---|---|---|
| 2026-05-04 03:24 | 10.59815 | -67.00914 | 242 ft | 0 kts | 178° |
| 2026-05-04 03:33 | 10.59822 | -67.00914 | 242 ft | 4 kts | 178° |
| 2026-05-04 03:33 | 10.59849 | -67.00915 | 242 ft | 4 kts | 178° |
| 2026-05-04 03:33 | 10.59873 | -67.00916 | 242 ft | 2 kts | 178° |
| 2026-05-04 03:34 | 10.59896 | -67.00911 | 242 ft | 4 kts | 230° |
| 2026-05-04 03:34 | 10.59906 | -67.00888 | 241 ft | 4 kts | 261° |
| 2026-05-04 03:34 | 10.59908 | -67.00866 | 241 ft | 0 kts | 268° |
| 2026-05-04 03:34 | 10.59911 | -67.00864 | 241 ft | 0 kts | 268° |
| 2026-05-04 03:38 | 10.59910 | -67.00877 | 241 ft | 5 kts | 267° |
| 2026-05-04 03:38 | 10.59908 | -67.00939 | 242 ft | 12 kts | 268° |
| 2026-05-04 03:38 | 10.59941 | -67.01007 | 243 ft | 11 kts | 324° |
| 2026-05-04 03:38 | 10.59977 | -67.01063 | 244 ft | 9 kts | 284° |
| 2026-05-04 03:39 | 10.59979 | -67.01120 | 245 ft | 8 kts | 268° |
| 2026-05-04 03:39 | 10.59977 | -67.01171 | 246 ft | 7 kts | 268° |
| 2026-05-04 03:39 | 10.59983 | -67.01214 | 247 ft | 5 kts | 298° |
| 2026-05-04 03:39 | 10.60017 | -67.01236 | 247 ft | 8 kts | 338° |
| 2026-05-04 03:40 | 10.60070 | -67.01243 | 247 ft | 8 kts | 358° |
| 2026-05-04 03:40 | 10.60132 | -67.01246 | 246 ft | 10 kts | 358° |
| 2026-05-04 03:40 | 10.60228 | -67.01249 | 244 ft | 14 kts | 358° |
| 2026-05-04 03:40 | 10.60315 | -67.01252 | 246 ft | 12 kts | 357° |
| 2026-05-04 03:41 | 10.60369 | -67.01241 | 247 ft | 6 kts | 45° |
| 2026-05-04 03:41 | 10.60382 | -67.01196 | 246 ft | 7 kts | 88° |
| 2026-05-04 03:41 | 10.60382 | -67.01192 | 246 ft | 0 kts | 88° |
| 2026-05-04 03:44 | 10.60388 | -67.01032 | 242 ft | 55 kts | 88° |
| 2026-05-04 03:44 | 10.60407 | -67.00424 | 235 ft | 115 kts | 88° |
| 2026-05-04 03:44 | 10.60438 | -66.99424 | 217 ft | 167 kts | 88° |
| 2026-05-04 03:45 | 10.60470 | -66.98192 | 731 ft | 168 kts | 89° |
| 2026-05-04 03:45 | 10.60513 | -66.97028 | 1412 ft | 168 kts | 85° |
| 2026-05-04 03:45 | 10.60705 | -66.95836 | 1745 ft | 177 kts | 77° |
| 2026-05-04 03:45 | 10.60997 | -66.94561 | 1938 ft | 193 kts | 78° |
| 2026-05-04 03:46 | 10.61286 | -66.93161 | 2105 ft | 212 kts | 79° |
| 2026-05-04 03:46 | 10.61789 | -66.91687 | 2286 ft | 232 kts | 59° |
| 2026-05-04 03:46 | 10.63028 | -66.90577 | 2507 ft | 250 kts | 23° |
| 2026-05-04 03:46 | 10.64761 | -66.90266 | 2971 ft | 259 kts | 4° |
| 2026-05-04 03:47 | 10.66561 | -66.90222 | 3556 ft | 260 kts | 3° |
| 2026-05-04 03:47 | 10.68386 | -66.90187 | 4087 ft | 263 kts | 4° |
| 2026-05-04 03:47 | 10.70221 | -66.90133 | 4556 ft | 271 kts | 4° |
| 2026-05-04 03:47 | 10.72114 | -66.90072 | 5079 ft | 274 kts | 4° |
| 2026-05-04 03:48 | 10.74041 | -66.90005 | 5611 ft | 279 kts | 4° |
| 2026-05-04 03:48 | 10.75990 | -66.89936 | 6154 ft | 282 kts | 4° |
| 2026-05-04 03:48 | 10.77965 | -66.89861 | 6617 ft | 285 kts | 4° |
| 2026-05-04 03:48 | 10.79964 | -66.89784 | 7081 ft | 290 kts | 5° |
| 2026-05-04 03:49 | 10.81986 | -66.89701 | 7567 ft | 293 kts | 4° |
| 2026-05-04 03:49 | 10.84040 | -66.89624 | 8093 ft | 297 kts | 4° |
| 2026-05-04 03:49 | 10.86109 | -66.89602 | 8617 ft | 299 kts | 360° |
| 2026-05-04 03:49 | 10.88202 | -66.89710 | 9104 ft | 302 kts | 358° |
| 2026-05-04 03:50 | 10.90312 | -66.89835 | 9598 ft | 305 kts | 358° |
| 2026-05-04 03:50 | 10.92433 | -66.89949 | 10141 ft | 306 kts | 359° |
| 2026-05-04 03:50 | 10.94596 | -66.90052 | 10420 ft | 316 kts | 359° |
| 2026-05-04 03:50 | 10.96840 | -66.90155 | 10636 ft | 329 kts | 359° |
| 2026-05-04 03:51 | 10.99162 | -66.90256 | 10867 ft | 340 kts | 360° |
| 2026-05-04 03:51 | 11.01566 | -66.90360 | 11076 ft | 351 kts | 359° |
| 2026-05-04 03:51 | 11.04042 | -66.90467 | 11277 ft | 361 kts | 360° |
| 2026-05-04 03:51 | 11.06591 | -66.90577 | 11474 ft | 371 kts | 360° |
| 2026-05-04 03:52 | 11.09206 | -66.90690 | 11661 ft | 381 kts | 360° |
| 2026-05-04 03:52 | 11.11885 | -66.90805 | 11854 ft | 390 kts | 359° |
| 2026-05-04 03:52 | 11.14622 | -66.90925 | 12050 ft | 397 kts | 360° |
| 2026-05-04 03:52 | 11.17393 | -66.91044 | 12383 ft | 401 kts | 360° |
| 2026-05-04 03:53 | 11.20185 | -66.91165 | 12751 ft | 402 kts | 359° |
| 2026-05-04 03:53 | 11.22988 | -66.91290 | 13077 ft | 405 kts | 359° |
| 2026-05-04 03:53 | 11.25810 | -66.91411 | 13409 ft | 407 kts | 360° |
| 2026-05-04 03:53 | 11.28649 | -66.91534 | 13754 ft | 409 kts | 360° |
| 2026-05-04 03:54 | 11.31502 | -66.91657 | 14070 ft | 412 kts | 359° |
| 2026-05-04 03:54 | 11.34371 | -66.91785 | 14426 ft | 414 kts | 359° |
| 2026-05-04 03:54 | 11.37252 | -66.91911 | 14761 ft | 415 kts | 359° |
| 2026-05-04 03:54 | 11.40146 | -66.92035 | 15055 ft | 417 kts | 359° |
| 2026-05-04 03:55 | 11.43057 | -66.92143 | 15362 ft | 420 kts | 1° |
| 2026-05-04 03:55 | 11.45981 | -66.92075 | 15714 ft | 420 kts | 5° |
| 2026-05-04 03:55 | 11.47912 | -66.91960 | 15907 ft | 421 kts | 6° |
| 2026-05-04 03:55 | 11.50837 | -66.91725 | 16183 ft | 423 kts | 7° |
| 2026-05-04 03:56 | 11.53770 | -66.91459 | 16439 ft | 425 kts | 7° |
| 2026-05-04 03:56 | 11.56720 | -66.91184 | 16713 ft | 426 kts | 7° |
| 2026-05-04 03:56 | 11.59683 | -66.90916 | 16973 ft | 429 kts | 7° |
| 2026-05-04 03:56 | 11.63630 | -66.90572 | 17388 ft | 431 kts | 6° |
| 2026-05-04 03:57 | 11.65650 | -66.90401 | 17565 ft | 432 kts | 7° |
| 2026-05-04 03:57 | 11.68654 | -66.90151 | 17834 ft | 435 kts | 6° |
| 2026-05-04 03:57 | 11.71673 | -66.89903 | 18148 ft | 436 kts | 6° |
| 2026-05-04 03:57 | 11.74700 | -66.89654 | 18446 ft | 438 kts | 6° |
| 2026-05-04 03:58 | 11.80789 | -66.89154 | 18997 ft | 440 kts | 6° |
| 2026-05-04 03:58 | 11.83847 | -66.88900 | 19206 ft | 442 kts | 6° |
| 2026-05-04 03:58 | 11.86919 | -66.88646 | 19442 ft | 444 kts | 6° |
| 2026-05-04 03:59 | 11.90004 | -66.88389 | 19716 ft | 445 kts | 6° |
| 2026-05-04 03:59 | 11.93097 | -66.88133 | 19986 ft | 446 kts | 6° |
| 2026-05-04 03:59 | 11.96200 | -66.87878 | 20224 ft | 448 kts | 6° |
| 2026-05-04 03:59 | 11.99313 | -66.87623 | 20473 ft | 449 kts | 5° |
| 2026-05-04 04:00 | 12.02434 | -66.87368 | 20724 ft | 451 kts | 5° |
| 2026-05-04 04:00 | 12.05568 | -66.87111 | 20971 ft | 452 kts | 5° |
| 2026-05-04 04:00 | 12.08666 | -66.86857 | 21223 ft | 454 kts | 5° |
| 2026-05-04 04:00 | 12.11821 | -66.86597 | 21480 ft | 456 kts | 5° |
| 2026-05-04 04:01 | 12.14987 | -66.86338 | 21780 ft | 457 kts | 5° |
| 2026-05-04 04:01 | 12.18162 | -66.86076 | 22028 ft | 458 kts | 5° |
| 2026-05-04 04:01 | 12.21342 | -66.85811 | 22281 ft | 459 kts | 5° |
| 2026-05-04 04:01 | 12.24537 | -66.85548 | 22488 ft | 462 kts | 5° |
| 2026-05-04 04:02 | 12.27747 | -66.85283 | 22745 ft | 463 kts | 5° |
| 2026-05-04 04:02 | 12.30947 | -66.84887 | 23006 ft | 464 kts | 10° |
| 2026-05-04 04:02 | 12.34083 | -66.84063 | 23242 ft | 466 kts | 19° |
| 2026-05-04 04:02 | 12.37080 | -66.82780 | 23479 ft | 468 kts | 25° |
| 2026-05-04 04:03 | 12.40000 | -66.81303 | 23723 ft | 470 kts | 27° |
| 2026-05-04 04:03 | 12.42936 | -66.79704 | 23935 ft | 472 kts | 28° |
| 2026-05-04 04:03 | 12.45778 | -66.78105 | 24188 ft | 473 kts | 28° |
| 2026-05-04 04:03 | 12.48667 | -66.76469 | 24418 ft | 476 kts | 28° |
| 2026-05-04 04:04 | 12.51564 | -66.74826 | 24668 ft | 478 kts | 28° |
| 2026-05-04 04:04 | 12.54483 | -66.73179 | 24913 ft | 479 kts | 28° |
| 2026-05-04 04:04 | 12.57412 | -66.71535 | 25151 ft | 482 kts | 28° |
| 2026-05-04 04:04 | 12.60362 | -66.69892 | 25384 ft | 484 kts | 27° |
| 2026-05-04 04:05 | 12.63327 | -66.68244 | 25627 ft | 486 kts | 27° |
| 2026-05-04 04:05 | 12.66303 | -66.66590 | 25893 ft | 488 kts | 27° |
| 2026-05-04 04:05 | 12.69291 | -66.64929 | 26141 ft | 490 kts | 27° |
| 2026-05-04 04:05 | 12.72292 | -66.63259 | 26390 ft | 492 kts | 27° |
| 2026-05-04 04:06 | 12.75305 | -66.61581 | 26666 ft | 494 kts | 27° |
| 2026-05-04 04:06 | 12.78332 | -66.59894 | 26925 ft | 497 kts | 27° |
| 2026-05-04 04:06 | 12.81371 | -66.58195 | 27198 ft | 498 kts | 27° |
| 2026-05-04 04:06 | 12.84421 | -66.56493 | 27474 ft | 501 kts | 27° |
| 2026-05-04 04:07 | 12.87488 | -66.54784 | 27758 ft | 502 kts | 27° |
| 2026-05-04 04:07 | 12.90564 | -66.53070 | 27992 ft | 505 kts | 27° |
| 2026-05-04 04:07 | 12.93655 | -66.51347 | 28254 ft | 507 kts | 27° |
| 2026-05-04 04:07 | 12.96760 | -66.49618 | 28491 ft | 509 kts | 27° |
| 2026-05-04 04:08 | 12.99873 | -66.47883 | 28736 ft | 510 kts | 27° |
| 2026-05-04 04:08 | 13.02994 | -66.46143 | 28935 ft | 512 kts | 27° |
| 2026-05-04 04:08 | 13.06128 | -66.44393 | 29131 ft | 514 kts | 27° |
| 2026-05-04 04:08 | 13.09274 | -66.42636 | 29355 ft | 515 kts | 27° |
| 2026-05-04 04:09 | 13.12425 | -66.40875 | 29635 ft | 516 kts | 27° |
| 2026-05-04 04:09 | 13.15570 | -66.39118 | 29981 ft | 514 kts | 27° |
| 2026-05-04 04:09 | 13.18709 | -66.37364 | 30289 ft | 514 kts | 26° |
| 2026-05-04 04:09 | 13.21843 | -66.35612 | 30600 ft | 512 kts | 27° |
| 2026-05-04 04:10 | 13.24974 | -66.33862 | 30877 ft | 512 kts | 27° |
| 2026-05-04 04:10 | 13.28100 | -66.32113 | 31146 ft | 512 kts | 27° |
| 2026-05-04 04:10 | 13.31225 | -66.30364 | 31441 ft | 511 kts | 27° |
| 2026-05-04 04:10 | 13.34340 | -66.28620 | 31735 ft | 510 kts | 27° |
| 2026-05-04 04:11 | 13.37456 | -66.26874 | 32016 ft | 510 kts | 27° |
| 2026-05-04 04:11 | 13.40566 | -66.25130 | 32312 ft | 509 kts | 27° |
| 2026-05-04 04:11 | 13.43629 | -66.23415 | 32523 ft | 508 kts | 27° |
| 2026-05-04 04:11 | 13.46776 | -66.21653 | 32706 ft | 509 kts | 27° |
| 2026-05-04 04:12 | 13.49879 | -66.19914 | 32956 ft | 507 kts | 27° |
| 2026-05-04 04:12 | 13.52939 | -66.18196 | 33154 ft | 508 kts | 27° |
| 2026-05-04 04:12 | 13.56041 | -66.16456 | 33340 ft | 508 kts | 27° |
| 2026-05-04 04:12 | 13.59139 | -66.14720 | 33573 ft | 508 kts | 27° |
| 2026-05-04 04:13 | 13.62237 | -66.12984 | 33809 ft | 506 kts | 27° |
| 2026-05-04 04:13 | 13.65331 | -66.11247 | 33973 ft | 507 kts | 27° |
| 2026-05-04 04:13 | 13.71548 | -66.07752 | 34021 ft | 512 kts | 27° |
| 2026-05-04 04:14 | 13.77807 | -66.04232 | 34022 ft | 513 kts | 27° |
| 2026-05-04 04:14 | 13.84065 | -66.00711 | 34028 ft | 513 kts | 27° |
| 2026-05-04 04:15 | 13.90318 | -65.97194 | 34029 ft | 512 kts | 27° |
| 2026-05-04 04:15 | 13.96581 | -65.93669 | 34024 ft | 513 kts | 27° |
| 2026-05-04 04:16 | 14.02834 | -65.90147 | 34030 ft | 512 kts | 27° |
| 2026-05-04 04:16 | 14.09084 | -65.86625 | 34025 ft | 512 kts | 27° |
| 2026-05-04 04:17 | 14.15328 | -65.83098 | 34023 ft | 512 kts | 27° |
| 2026-05-04 04:17 | 14.21583 | -65.79568 | 34034 ft | 512 kts | 27° |
| 2026-05-04 04:18 | 14.27839 | -65.76038 | 34047 ft | 512 kts | 27° |
| 2026-05-04 04:18 | 14.34086 | -65.72511 | 34028 ft | 512 kts | 27° |
| 2026-05-04 04:19 | 14.40339 | -65.68978 | 34036 ft | 512 kts | 27° |
| 2026-05-04 04:19 | 14.46587 | -65.65444 | 34035 ft | 512 kts | 27° |
| 2026-05-04 04:20 | 14.52826 | -65.61913 | 34049 ft | 512 kts | 27° |
| 2026-05-04 04:20 | 14.55951 | -65.60144 | 34286 ft | 509 kts | 27° |
| 2026-05-04 04:20 | 14.59036 | -65.58396 | 34686 ft | 504 kts | 27° |
| 2026-05-04 04:21 | 14.62095 | -65.56657 | 34998 ft | 500 kts | 27° |
| 2026-05-04 04:21 | 14.65134 | -65.54930 | 35249 ft | 498 kts | 27° |
| 2026-05-04 04:21 | 14.68165 | -65.53209 | 35470 ft | 495 kts | 27° |
| 2026-05-04 04:21 | 14.71180 | -65.51494 | 35640 ft | 495 kts | 27° |
| 2026-05-04 04:22 | 14.74189 | -65.49782 | 35817 ft | 493 kts | 27° |
| 2026-05-04 04:22 | 14.77197 | -65.48074 | 36000 ft | 492 kts | 27° |
| 2026-05-04 04:22 | 14.83229 | -65.44648 | 36060 ft | 497 kts | 27° |
| 2026-05-04 04:23 | 14.89257 | -65.41221 | 36066 ft | 498 kts | 27° |
| 2026-05-04 04:23 | 14.95328 | -65.37766 | 36064 ft | 497 kts | 27° |
| 2026-05-04 04:24 | 15.01387 | -65.34315 | 36060 ft | 497 kts | 27° |
| 2026-05-04 04:24 | 15.07453 | -65.30863 | 36065 ft | 497 kts | 26° |
| 2026-05-04 04:25 | 15.13848 | -65.28265 | 36073 ft | 493 kts | 16° |
| 2026-05-04 04:25 | 15.20417 | -65.26181 | 36077 ft | 493 kts | 15° |
| 2026-05-04 04:26 | 15.27006 | -65.24185 | 36082 ft | 494 kts | 14° |
| 2026-05-04 04:26 | 15.33594 | -65.22180 | 36082 ft | 494 kts | 15° |
| 2026-05-04 04:27 | 15.40180 | -65.20155 | 36082 ft | 493 kts | 15° |
| 2026-05-04 04:27 | 15.46766 | -65.18122 | 36083 ft | 493 kts | 14° |
| 2026-05-04 04:28 | 15.53351 | -65.16093 | 36082 ft | 493 kts | 15° |
| 2026-05-04 04:28 | 15.59928 | -65.14060 | 36082 ft | 493 kts | 15° |
| 2026-05-04 04:29 | 15.66506 | -65.12019 | 36089 ft | 493 kts | 15° |
| 2026-05-04 04:29 | 15.73081 | -65.09983 | 36091 ft | 493 kts | 15° |
| 2026-05-04 04:30 | 15.79670 | -65.07952 | 36091 ft | 494 kts | 15° |
| 2026-05-04 04:30 | 15.86253 | -65.05918 | 36092 ft | 493 kts | 15° |
| 2026-05-04 04:31 | 15.92784 | -65.03891 | 36093 ft | 493 kts | 15° |
| 2026-05-04 04:31 | 15.99354 | -65.01853 | 36092 ft | 493 kts | 15° |
| 2026-05-04 04:32 | 16.05925 | -64.99819 | 36091 ft | 493 kts | 15° |
| 2026-05-04 04:32 | 16.12496 | -64.97777 | 36091 ft | 493 kts | 15° |
| 2026-05-04 04:33 | 16.19059 | -64.95708 | 36077 ft | 493 kts | 18° |
| 2026-05-04 04:33 | 16.25171 | -64.92435 | 36079 ft | 498 kts | 35° |
| 2026-05-04 04:34 | 16.30404 | -64.87702 | 36082 ft | 499 kts | 41° |
| 2026-05-04 04:34 | 16.35411 | -64.82681 | 36083 ft | 500 kts | 42° |
| 2026-05-04 04:35 | 16.40390 | -64.77620 | 36089 ft | 500 kts | 42° |
| 2026-05-04 04:35 | 16.45393 | -64.72579 | 36090 ft | 500 kts | 42° |
| 2026-05-04 04:36 | 16.50404 | -64.67549 | 36090 ft | 500 kts | 42° |
| 2026-05-04 04:36 | 16.55418 | -64.62522 | 36091 ft | 500 kts | 42° |
| 2026-05-04 04:37 | 16.65422 | -64.52493 | 36090 ft | 501 kts | 42° |
| 2026-05-04 04:38 | 16.70431 | -64.47455 | 36091 ft | 500 kts | 42° |
| 2026-05-04 04:38 | 16.75441 | -64.42407 | 36092 ft | 500 kts | 42° |
| 2026-05-04 04:39 | 16.80446 | -64.37367 | 36091 ft | 500 kts | 42° |
| 2026-05-04 04:39 | 16.85453 | -64.32326 | 36092 ft | 499 kts | 42° |
| 2026-05-04 04:40 | 16.90455 | -64.27284 | 36092 ft | 501 kts | 42° |
| 2026-05-04 04:40 | 16.95466 | -64.22228 | 36089 ft | 501 kts | 42° |
| 2026-05-04 04:41 | 17.00474 | -64.17174 | 36092 ft | 501 kts | 42° |
| 2026-05-04 04:41 | 17.05484 | -64.12105 | 36092 ft | 502 kts | 42° |
| 2026-05-04 04:42 | 17.10492 | -64.07036 | 36092 ft | 501 kts | 42° |
| 2026-05-04 04:42 | 17.15497 | -64.01968 | 36091 ft | 501 kts | 42° |
| 2026-05-04 04:43 | 17.19654 | -63.97757 | 36091 ft | 500 kts | 42° |
| 2026-05-04 04:43 | 17.24644 | -63.92676 | 36082 ft | 501 kts | 42° |
| 2026-05-04 04:44 | 17.29656 | -63.87596 | 36082 ft | 501 kts | 42° |
| 2026-05-04 04:44 | 17.34668 | -63.82517 | 36091 ft | 501 kts | 42° |
| 2026-05-04 04:45 | 17.39670 | -63.77433 | 36092 ft | 502 kts | 42° |
| 2026-05-04 04:47 | 17.57133 | -63.59640 | 36101 ft | 502 kts | 42° |
| 2026-05-04 04:47 | 17.62131 | -63.54537 | 36098 ft | 501 kts | 42° |
| 2026-05-04 04:48 | 17.67136 | -63.49420 | 36103 ft | 504 kts | 42° |
| 2026-05-04 04:49 | 17.79639 | -63.36638 | 36101 ft | 502 kts | 43° |
| 2026-05-04 04:49 | 17.84634 | -63.31523 | 36100 ft | 502 kts | 43° |
| 2026-05-04 04:50 | 17.89624 | -63.26401 | 36101 ft | 501 kts | 43° |
| 2026-05-04 04:50 | 17.94604 | -63.21286 | 36101 ft | 501 kts | 43° |
| 2026-05-04 04:51 | 17.99582 | -63.16171 | 36097 ft | 500 kts | 43° |
| 2026-05-04 04:51 | 18.04566 | -63.11055 | 36101 ft | 501 kts | 43° |
| 2026-05-04 04:52 | 18.09556 | -63.05942 | 36095 ft | 500 kts | 43° |
| 2026-05-04 04:52 | 18.14536 | -63.00830 | 36069 ft | 500 kts | 43° |
| 2026-05-04 04:53 | 18.19513 | -62.95726 | 36054 ft | 500 kts | 43° |
| 2026-05-04 04:53 | 18.24489 | -62.90603 | 36055 ft | 501 kts | 43° |
| 2026-05-04 04:54 | 18.29464 | -62.85471 | 36048 ft | 501 kts | 43° |
| 2026-05-04 04:54 | 18.34441 | -62.80342 | 36057 ft | 501 kts | 43° |
| 2026-05-04 04:55 | 18.39383 | -62.75252 | 36056 ft | 500 kts | 43° |
| 2026-05-04 04:55 | 18.44385 | -62.70087 | 36054 ft | 500 kts | 43° |
| 2026-05-04 04:56 | 18.49320 | -62.65000 | 36051 ft | 499 kts | 43° |
| 2026-05-04 04:56 | 18.54290 | -62.59868 | 36057 ft | 500 kts | 43° |
| 2026-05-04 04:57 | 18.59249 | -62.54733 | 36053 ft | 500 kts | 43° |
| 2026-05-04 04:57 | 18.64200 | -62.49602 | 36051 ft | 499 kts | 43° |
| 2026-05-04 04:58 | 18.69150 | -62.44465 | 36048 ft | 500 kts | 43° |
| 2026-05-04 04:58 | 18.74114 | -62.39323 | 36044 ft | 499 kts | 43° |
| 2026-05-04 04:59 | 18.79074 | -62.34177 | 36057 ft | 500 kts | 43° |
| 2026-05-04 04:59 | 18.84030 | -62.29025 | 36058 ft | 500 kts | 43° |
| 2026-05-04 05:00 | 18.88982 | -62.23875 | 36050 ft | 500 kts | 43° |
| 2026-05-04 05:01 | 18.96404 | -62.16157 | 36060 ft | 499 kts | 43° |
| 2026-05-04 05:01 | 19.01351 | -62.11009 | 36053 ft | 499 kts | 43° |
| 2026-05-04 05:02 | 19.06303 | -62.05837 | 36050 ft | 500 kts | 43° |
| 2026-05-04 05:02 | 19.11252 | -62.00675 | 36058 ft | 500 kts | 43° |
| 2026-05-04 05:03 | 19.16164 | -61.95544 | 36052 ft | 498 kts | 44° |
| 2026-05-04 05:04 | 19.26002 | -61.85248 | 36048 ft | 497 kts | 43° |
| 2026-05-04 05:04 | 19.30921 | -61.80090 | 36049 ft | 498 kts | 44° |
| 2026-05-04 05:06 | 19.50606 | -61.59424 | 36076 ft | 498 kts | 44° |
| 2026-05-04 05:07 | 19.55518 | -61.54251 | 36074 ft | 498 kts | 44° |
| 2026-05-04 05:07 | 19.60423 | -61.49088 | 36072 ft | 496 kts | 44° |
| 2026-05-04 05:09 | 19.82483 | -61.25796 | 36068 ft | 497 kts | 44° |
| 2026-05-04 05:10 | 19.87380 | -61.20609 | 36062 ft | 497 kts | 44° |
| 2026-05-04 05:10 | 19.92233 | -61.15464 | 36060 ft | 496 kts | 44° |
| 2026-05-04 05:11 | 19.97121 | -61.10279 | 36061 ft | 496 kts | 44° |
| 2026-05-04 05:11 | 20.02002 | -61.05101 | 36064 ft | 495 kts | 43° |
| 2026-05-04 05:12 | 20.06878 | -60.99923 | 36054 ft | 495 kts | 44° |
| 2026-05-04 05:12 | 20.11749 | -60.94736 | 36058 ft | 495 kts | 44° |
| 2026-05-04 05:13 | 20.16612 | -60.89559 | 36064 ft | 495 kts | 44° |
| 2026-05-04 05:13 | 20.21473 | -60.84377 | 36061 ft | 495 kts | 44° |
| 2026-05-04 05:14 | 20.26331 | -60.79194 | 36065 ft | 495 kts | 44° |
| 2026-05-04 05:14 | 20.31206 | -60.73999 | 36064 ft | 495 kts | 44° |
| 2026-05-04 05:15 | 20.36059 | -60.68811 | 36063 ft | 493 kts | 44° |
| 2026-05-04 05:15 | 20.40902 | -60.63632 | 36059 ft | 493 kts | 44° |
| 2026-05-04 05:16 | 20.45753 | -60.58447 | 36060 ft | 494 kts | 44° |
| 2026-05-04 05:16 | 20.50593 | -60.53253 | 36060 ft | 494 kts | 44° |
| 2026-05-04 05:17 | 20.55432 | -60.48054 | 36057 ft | 493 kts | 44° |
| 2026-05-04 05:17 | 20.60265 | -60.42863 | 36055 ft | 493 kts | 44° |
| 2026-05-04 05:18 | 20.65106 | -60.37664 | 36055 ft | 494 kts | 44° |
| 2026-05-04 05:18 | 20.69939 | -60.32470 | 36047 ft | 493 kts | 44° |
| 2026-05-04 05:19 | 20.74769 | -60.27267 | 36059 ft | 494 kts | 44° |
| 2026-05-04 05:19 | 20.79596 | -60.22064 | 36055 ft | 493 kts | 44° |
| 2026-05-04 05:20 | 20.84424 | -60.16857 | 36056 ft | 493 kts | 44° |
| 2026-05-04 05:20 | 20.89257 | -60.11644 | 36052 ft | 494 kts | 44° |
| 2026-05-04 05:21 | 20.94085 | -60.06413 | 36054 ft | 493 kts | 44° |
| 2026-05-04 05:21 | 20.98906 | -60.01198 | 36058 ft | 493 kts | 44° |
| 2026-05-04 05:22 | 21.03644 | -59.95894 | 36056 ft | 492 kts | 46° |
| 2026-05-04 05:22 | 21.08145 | -59.90439 | 36051 ft | 492 kts | 47° |
| 2026-05-04 05:23 | 21.12659 | -59.84943 | 36051 ft | 492 kts | 46° |
| 2026-05-04 05:23 | 21.17212 | -59.79461 | 36057 ft | 492 kts | 46° |
| 2026-05-04 05:24 | 21.21774 | -59.73993 | 36054 ft | 492 kts | 46° |
| 2026-05-04 05:24 | 21.26341 | -59.68527 | 36034 ft | 492 kts | 46° |
| 2026-05-04 05:25 | 21.30911 | -59.63059 | 36036 ft | 492 kts | 46° |
| 2026-05-04 05:25 | 21.35467 | -59.57581 | 36035 ft | 493 kts | 46° |
| 2026-05-04 05:26 | 21.40035 | -59.52100 | 36034 ft | 493 kts | 46° |
| 2026-05-04 05:26 | 21.44598 | -59.46608 | 36049 ft | 493 kts | 46° |
| 2026-05-04 05:28 | 21.62833 | -59.24608 | 36036 ft | 492 kts | 46° |
| 2026-05-04 05:29 | 21.67380 | -59.19114 | 36036 ft | 492 kts | 46° |
| 2026-05-04 05:29 | 21.71930 | -59.13609 | 36035 ft | 492 kts | 46° |
| 2026-05-04 05:31 | 21.89307 | -58.92520 | 36027 ft | 491 kts | 46° |
| 2026-05-04 05:32 | 21.93828 | -58.87016 | 36026 ft | 491 kts | 46° |
| 2026-05-04 05:33 | 22.01338 | -58.77863 | 36026 ft | 490 kts | 46° |
| 2026-05-04 05:33 | 22.05127 | -58.73247 | 36027 ft | 491 kts | 46° |
| 2026-05-04 05:34 | 22.09648 | -58.67731 | 36028 ft | 490 kts | 46° |
| 2026-05-04 05:34 | 22.14161 | -58.62212 | 36028 ft | 490 kts | 46° |
| 2026-05-04 05:35 | 22.18674 | -58.56689 | 36027 ft | 490 kts | 46° |
| 2026-05-04 05:35 | 22.23154 | -58.51210 | 36025 ft | 490 kts | 46° |
| 2026-05-04 05:36 | 22.27662 | -58.45687 | 36026 ft | 490 kts | 46° |
| 2026-05-04 05:36 | 22.32168 | -58.40161 | 36025 ft | 491 kts | 46° |
| 2026-05-04 05:37 | 22.36665 | -58.34616 | 36026 ft | 490 kts | 46° |
| 2026-05-04 05:37 | 22.41162 | -58.29085 | 36027 ft | 490 kts | 46° |
| 2026-05-04 05:38 | 22.47912 | -58.20775 | 36026 ft | 491 kts | 46° |
| 2026-05-04 05:38 | 22.52407 | -58.15231 | 36027 ft | 490 kts | 46° |
| 2026-05-04 05:39 | 22.59147 | -58.06917 | 36028 ft | 489 kts | 46° |
| 2026-05-04 05:40 | 22.65881 | -57.98583 | 36027 ft | 490 kts | 46° |
| 2026-05-04 05:40 | 22.70367 | -57.93026 | 36026 ft | 490 kts | 46° |
| 2026-05-04 05:41 | 22.74836 | -57.87478 | 36027 ft | 489 kts | 46° |
| 2026-05-04 05:41 | 22.79305 | -57.81938 | 36026 ft | 488 kts | 46° |
| 2026-05-04 05:42 | 22.83773 | -57.76384 | 36026 ft | 488 kts | 46° |
| 2026-05-04 05:42 | 22.88236 | -57.70833 | 36026 ft | 488 kts | 46° |
| 2026-05-04 05:43 | 22.92706 | -57.65275 | 36021 ft | 489 kts | 46° |
| 2026-05-04 05:45 | 23.10546 | -57.42990 | 36017 ft | 489 kts | 46° |
| 2026-05-04 05:47 | 23.28366 | -57.20654 | 36018 ft | 488 kts | 46° |
| 2026-05-04 05:47 | 23.32780 | -57.15098 | 36017 ft | 489 kts | 46° |
| 2026-05-04 05:48 | 23.37220 | -57.09505 | 36017 ft | 488 kts | 46° |
| 2026-05-04 05:48 | 23.41654 | -57.03911 | 36018 ft | 488 kts | 46° |
| 2026-05-04 05:49 | 23.46090 | -56.98309 | 36018 ft | 489 kts | 46° |
| 2026-05-04 05:49 | 23.50537 | -56.92709 | 36018 ft | 488 kts | 47° |
| 2026-05-04 05:51 | 23.68228 | -56.70276 | 36018 ft | 488 kts | 46° |
| 2026-05-04 05:52 | 23.72656 | -56.64652 | 36018 ft | 488 kts | 46° |
| 2026-05-04 05:52 | 23.77078 | -56.59031 | 36017 ft | 488 kts | 46° |
| 2026-05-04 05:54 | 23.94729 | -56.36521 | 36009 ft | 487 kts | 46° |
| 2026-05-04 05:55 | 23.99132 | -56.30883 | 36010 ft | 488 kts | 46° |
| 2026-05-04 05:55 | 24.03533 | -56.25244 | 36009 ft | 487 kts | 46° |
| 2026-05-04 05:56 | 24.07935 | -56.19595 | 36006 ft | 488 kts | 46° |
| 2026-05-04 05:56 | 24.12338 | -56.13947 | 36031 ft | 488 kts | 46° |
| 2026-05-04 05:57 | 24.16742 | -56.08293 | 36054 ft | 488 kts | 46° |
| 2026-05-04 05:57 | 24.21143 | -56.02627 | 36050 ft | 488 kts | 46° |
| 2026-05-04 05:58 | 24.25537 | -55.96966 | 36035 ft | 488 kts | 46° |
| 2026-05-04 05:58 | 24.29932 | -55.91297 | 36051 ft | 488 kts | 46° |
| 2026-05-04 05:59 | 24.34295 | -55.85665 | 36056 ft | 487 kts | 46° |
| 2026-05-04 05:59 | 24.38685 | -55.79996 | 36047 ft | 488 kts | 46° |
| 2026-05-04 06:00 | 24.43076 | -55.74309 | 36057 ft | 488 kts | 46° |
| 2026-05-04 06:00 | 24.47463 | -55.68620 | 36057 ft | 487 kts | 46° |
| 2026-05-04 06:01 | 24.51846 | -55.62943 | 36053 ft | 488 kts | 47° |
| 2026-05-04 06:03 | 24.69349 | -55.40173 | 36055 ft | 487 kts | 47° |
| 2026-05-04 06:05 | 24.89003 | -55.14466 | 36054 ft | 489 kts | 47° |
| 2026-05-04 06:06 | 24.93363 | -55.08732 | 36053 ft | 488 kts | 47° |
| 2026-05-04 06:06 | 24.97723 | -55.03000 | 36053 ft | 487 kts | 47° |
| 2026-05-04 06:06 | 24.99848 | -55.00100 | 36191 ft | 487 kts | 51° |
| 2026-05-04 06:07 | 25.01830 | -54.97085 | 36489 ft | 484 kts | 51° |
| 2026-05-04 06:07 | 25.03776 | -54.94062 | 36731 ft | 482 kts | 51° |
| 2026-05-04 06:07 | 25.05694 | -54.91045 | 36871 ft | 480 kts | 52° |
| 2026-05-04 06:07 | 25.07601 | -54.88024 | 37008 ft | 480 kts | 52° |
| 2026-05-04 06:08 | 25.09512 | -54.84989 | 37050 ft | 481 kts | 52° |
| 2026-05-04 06:08 | 25.13310 | -54.78948 | 37039 ft | 478 kts | 52° |
| 2026-05-04 06:09 | 25.17098 | -54.72930 | 37044 ft | 477 kts | 52° |
| 2026-05-04 06:11 | 25.32206 | -54.48869 | 37032 ft | 477 kts | 51° |
| 2026-05-04 06:13 | 25.47274 | -54.24750 | 37031 ft | 475 kts | 51° |
| 2026-05-04 06:14 | 25.60389 | -54.03655 | 37041 ft | 475 kts | 52° |
| 2026-05-04 06:15 | 25.64131 | -53.97619 | 37039 ft | 475 kts | 52° |
| 2026-05-04 06:15 | 25.67872 | -53.91578 | 37044 ft | 475 kts | 52° |
| 2026-05-04 06:16 | 25.71576 | -53.85590 | 37033 ft | 474 kts | 52° |
| 2026-05-04 06:16 | 25.75305 | -53.79560 | 37030 ft | 475 kts | 51° |
| 2026-05-04 06:17 | 25.79039 | -53.73512 | 37032 ft | 475 kts | 52° |
| 2026-05-04 06:17 | 25.82765 | -53.67462 | 37032 ft | 475 kts | 52° |
| 2026-05-04 06:18 | 25.85853 | -53.62435 | 37043 ft | 475 kts | 52° |